Thunder radar more information blitzortung!


Radar de pluja more information rain snow radar


Visita la nostra xarxa de llocs de meteo:

Template documentation
and downloads

And another site



No particular awareness of the weather is required.    There are no Weather-warnings

Pagina Historial Weather Underground text

Diari Resum Novembre 10, 2017 Unitats:  Mètric    Imperial   Tant
« Previous Dia
SegĂźent Dia »
Diari Setmana Mensual Anual Personalitzada
  Maxima: Minima: Media:
Temperatura: 15.0 °C 3.8 °C 10.4 °C
Punt de rosada: 5.1 °C -1.6 °C 1.6 °C
Humitat: 68 % 47 % 55 %
Wind Speed: 11.1 km/h 0.0 km/h 3.4 km/h
RĂ fegues de vent: 11.3 km/h - -
Vent:- - SSE
Pression baro: 1027.0 hPa 1023.9 hPa -
Precipitacions: 0.0 mm    
Historical Graphs
 
 
Dades de taula per Novembre 10, 2017
Temps Temperatura Punt de rosada Pression baro Vent Wind Speed RĂ fegues de vent Humitat Rainfall Rate (Hourly)
00:04 5.1 °C -0.3 °C 1026.0 hPa Calm     68 % 0.0 mm
00:05 4.3 °C -1.1 °C 1026.0 hPa NNE 1.6 km/h 3.2 km/h 68 % 0.0 mm
00:15 4.3 °C -1.1 °C 1026.0 hPa NNE 3.2 km/h 4.8 km/h 68 % 0.0 mm
00:25 4.2 °C -1.2 °C 1024.9 hPa NNE 1.6 km/h 3.2 km/h 68 % 0.0 mm
00:35 4.1 °C -1.5 °C 1024.9 hPa NW 1.6 km/h 1.6 km/h 67 % 0.0 mm
00:45 4.1 °C -1.3 °C 1026.0 hPa WNW 1.6 km/h 1.6 km/h 68 % 0.0 mm
00:55 4.0 °C -1.4 °C 1026.0 hPa NNW 1.6 km/h 3.2 km/h 68 % 0.0 mm
01:05 4.1 °C -1.3 °C 1026.0 hPa NNW 1.6 km/h 6.4 km/h 68 % 0.0 mm
01:15 4.1 °C -1.3 °C 1024.9 hPa North 3.2 km/h 4.8 km/h 68 % 0.0 mm
01:25 3.9 °C -1.5 °C 1026.0 hPa North 1.6 km/h 4.8 km/h 68 % 0.0 mm
01:35 3.8 °C -1.6 °C 1026.0 hPa North 1.6 km/h 1.6 km/h 68 % 0.0 mm
01:45 3.8 °C -1.6 °C 1024.9 hPa NNE 3.2 km/h 4.8 km/h 68 % 0.0 mm
01:55 4.1 °C -1.3 °C 1026.0 hPa NE 3.2 km/h 4.8 km/h 68 % 0.0 mm
02:05 4.4 °C -1.0 °C 1026.0 hPa NNE 1.6 km/h 6.4 km/h 68 % 0.0 mm
02:15 4.7 °C -0.7 °C 1026.0 hPa North 1.6 km/h 3.2 km/h 68 % 0.0 mm
02:25 5.0 °C -0.6 °C 1026.0 hPa NNE 4.8 km/h 8.0 km/h 67 % 0.0 mm
02:35 5.6 °C -0.1 °C 1026.0 hPa Calm   3.2 km/h 67 % 0.0 mm
02:45 6.0 °C 0.3 °C 1026.0 hPa NE 1.6 km/h 3.2 km/h 67 % 0.0 mm
02:55 6.3 °C 0.4 °C 1026.0 hPa NE 1.6 km/h 3.2 km/h 66 % 0.0 mm
03:05 6.7 °C 0.6 °C 1026.0 hPa NNE 3.2 km/h 4.8 km/h 65 % 0.0 mm
03:15 6.5 °C 0.2 °C 1027.0 hPa NNE 4.8 km/h 9.7 km/h 64 % 0.0 mm
03:25 6.7 °C 0.4 °C 1026.0 hPa NNE 1.6 km/h 8.0 km/h 64 % 0.0 mm
03:35 7.1 °C 0.7 °C 1026.0 hPa NNE 3.2 km/h 9.7 km/h 64 % 0.0 mm
03:45 7.2 °C 0.6 °C 1026.0 hPa NE 4.8 km/h 4.8 km/h 63 % 0.0 mm
03:55 7.8 °C 1.2 °C 1027.0 hPa NE 3.2 km/h 6.4 km/h 63 % 0.0 mm
04:10 8.0 °C 1.2 °C 1027.0 hPa NE 4.8 km/h 11.3 km/h 62 % 0.0 mm
04:20 8.3 °C 1.4 °C 1027.0 hPa NNE 4.8 km/h 4.8 km/h 62 % 0.0 mm
04:30 8.7 °C 1.6 °C 1027.0 hPa NNE 3.2 km/h 4.8 km/h 61 % 0.0 mm
10:38 8.9 °C 1.8 °C 1027.0 hPa NNW 5.6 km/h 5.6 km/h 61 % 0.0 mm
10:43 9.1 °C 1.9 °C 1027.0 hPa NE 5.6 km/h 5.6 km/h 61 % 0.0 mm
10:48 8.9 °C 1.6 °C 1027.0 hPa ENE 7.4 km/h 7.4 km/h 60 % 0.0 mm
10:53 9.3 °C 1.9 °C 1027.0 hPa West 3.7 km/h 3.7 km/h 60 % 0.0 mm
10:58 9.5 °C 2.1 °C 1027.0 hPa NE 3.7 km/h 3.7 km/h 60 % 0.0 mm
11:03 9.8 °C 2.4 °C 1027.0 hPa NNE 6.1 km/h 6.1 km/h 60 % 0.0 mm
11:08 9.6 °C 1.9 °C 1027.0 hPa NNE 3.7 km/h 3.7 km/h 59 % 0.0 mm
11:13 9.6 °C 1.9 °C 1027.0 hPa NE 5.6 km/h 5.6 km/h 59 % 0.0 mm
11:18 9.8 °C 1.9 °C 1027.0 hPa ENE 4.2 km/h 4.2 km/h 58 % 0.0 mm
11:23 9.8 °C 1.9 °C 1027.0 hPa ESE 3.7 km/h 3.7 km/h 58 % 0.0 mm
11:28 10.1 °C 2.2 °C 1027.0 hPa NNE 3.9 km/h 3.9 km/h 58 % 0.0 mm
11:33 10.6 °C 2.7 °C 1027.0 hPa NNE 2.3 km/h 2.3 km/h 58 % 0.0 mm
11:38 10.8 °C 2.8 °C 1027.0 hPa NNE 3.7 km/h 3.7 km/h 58 % 0.0 mm
11:43 10.7 °C 2.5 °C 1027.0 hPa NNE 3.7 km/h 3.7 km/h 57 % 0.0 mm
11:48 10.8 °C 2.6 °C 1027.0 hPa ESE 5.6 km/h 5.6 km/h 57 % 0.0 mm
11:53 11.2 °C 3.0 °C 1027.0 hPa East 4.7 km/h 4.7 km/h 57 % 0.0 mm
11:58 11.3 °C 3.1 °C 1027.0 hPa NE 5.6 km/h 5.6 km/h 57 % 0.0 mm
12:03 11.4 °C 3.2 °C 1027.0 hPa NNE 4.2 km/h 4.2 km/h 57 % 0.0 mm
12:08 11.7 °C 3.4 °C 1026.0 hPa NNE 3.7 km/h 3.7 km/h 57 % 0.0 mm
12:13 11.7 °C 3.2 °C 1026.0 hPa NE 3.7 km/h 3.7 km/h 56 % 0.0 mm
12:14 11.7 °C 3.2 °C 1026.0 hPa NE 3.7 km/h 3.7 km/h 56 % 0.0 mm
12:19 11.8 °C 3.3 °C 1026.0 hPa SSE 3.7 km/h 3.7 km/h 56 % 0.0 mm
12:24 12.1 °C 3.6 °C 1026.0 hPa West 1.9 km/h 1.9 km/h 56 % 0.0 mm
12:29 12.4 °C 3.8 °C 1026.0 hPa NE 3.7 km/h 3.7 km/h 56 % 0.0 mm
12:34 12.6 °C 4.1 °C 1026.0 hPa NNE 3.7 km/h 3.7 km/h 56 % 0.0 mm
12:39 12.7 °C 4.2 °C 1026.0 hPa ENE 3.9 km/h 3.9 km/h 56 % 0.0 mm
12:44 12.6 °C 3.6 °C 1026.0 hPa ESE 7.4 km/h 7.4 km/h 54 % 0.0 mm
12:49 12.7 °C 3.9 °C 1026.0 hPa ENE 3.7 km/h 3.7 km/h 55 % 0.0 mm
12:54 12.9 °C 4.1 °C 1026.0 hPa East 3.7 km/h 3.7 km/h 55 % 0.0 mm
12:59 13.0 °C 4.2 °C 1026.0 hPa ENE 5.6 km/h 5.6 km/h 55 % 0.0 mm
13:04 13.2 °C 4.3 °C 1026.0 hPa ENE 5.6 km/h 5.6 km/h 55 % 0.0 mm
13:09 13.2 °C 4.1 °C 1026.0 hPa ENE 7.4 km/h 7.4 km/h 54 % 0.0 mm
13:14 13.3 °C 4.2 °C 1026.0 hPa NE 7.4 km/h 7.4 km/h 54 % 0.0 mm
13:19 13.4 °C 4.3 °C 1026.0 hPa East 5.6 km/h 5.6 km/h 54 % 0.0 mm
13:24 13.6 °C 4.2 °C 1026.0 hPa SE 5.6 km/h 5.6 km/h 53 % 0.0 mm
13:29 13.9 °C 4.4 °C 1026.0 hPa ENE 5.0 km/h 5.0 km/h 53 % 0.0 mm
13:34 14.0 °C 4.6 °C 1026.0 hPa ESE 3.7 km/h 3.9 km/h 53 % 0.0 mm
13:39 14.1 °C 4.7 °C 1024.9 hPa NNE 5.6 km/h 5.6 km/h 53 % 0.0 mm
13:44 14.2 °C 4.7 °C 1024.9 hPa NE 3.7 km/h 3.7 km/h 53 % 0.0 mm
13:49 14.3 °C 4.8 °C 1024.9 hPa NE 7.4 km/h 7.4 km/h 53 % 0.0 mm
13:54 14.3 °C 4.8 °C 1023.9 hPa ENE 7.4 km/h 7.4 km/h 53 % 0.0 mm
13:59 14.3 °C 4.6 °C 1023.9 hPa NNE 3.7 km/h 3.7 km/h 52 % 0.0 mm
14:04 14.5 °C 4.8 °C 1023.9 hPa North 4.2 km/h 4.2 km/h 52 % 0.0 mm
14:09 14.7 °C 4.9 °C 1024.9 hPa East 3.7 km/h 3.7 km/h 52 % 0.0 mm
14:14 14.8 °C 5.1 °C 1024.9 hPa East 3.7 km/h 3.7 km/h 52 % 0.0 mm
14:19 14.7 °C 4.7 °C 1024.9 hPa ENE 3.7 km/h 3.9 km/h 51 % 0.0 mm
14:24 14.8 °C 5.1 °C 1024.9 hPa ENE 3.7 km/h 3.7 km/h 52 % 0.0 mm
14:29 14.8 °C 5.1 °C 1024.9 hPa NNE 3.7 km/h 3.7 km/h 52 % 0.0 mm
14:34 14.8 °C 5.1 °C 1024.9 hPa WSW 5.6 km/h 5.6 km/h 52 % 0.0 mm
14:39 14.9 °C 4.8 °C 1024.9 hPa West 6.1 km/h 6.1 km/h 51 % 0.0 mm
14:44 15.0 °C 4.9 °C 1024.9 hPa WNW 7.9 km/h 7.9 km/h 51 % 0.0 mm
14:49 15.0 °C 4.9 °C 1024.9 hPa SW 7.4 km/h 7.4 km/h 51 % 0.0 mm
14:54 14.9 °C 4.6 °C 1024.9 hPa West 11.1 km/h 11.1 km/h 50 % 0.0 mm
14:59 14.8 °C 4.2 °C 1024.9 hPa WNW 9.3 km/h 9.3 km/h 49 % 0.0 mm
15:04 14.7 °C 4.4 °C 1024.9 hPa WNW 9.5 km/h 9.5 km/h 50 % 0.0 mm
15:09 14.6 °C 3.7 °C 1024.9 hPa NNE 11.1 km/h 11.1 km/h 48 % 0.0 mm
15:14 14.5 °C 3.3 °C 1024.9 hPa NW 11.1 km/h 11.1 km/h 47 % 0.0 mm
15:19 14.4 °C 3.2 °C 1024.9 hPa WSW 5.6 km/h 5.6 km/h 47 % 0.0 mm
15:24 14.3 °C 3.1 °C 1024.9 hPa WNW 11.1 km/h 11.1 km/h 47 % 0.0 mm
15:29 14.3 °C 3.1 °C 1024.9 hPa WSW 3.7 km/h 3.7 km/h 47 % 0.0 mm
15:34 14.2 °C 3.1 °C 1024.9 hPa West 11.1 km/h 11.1 km/h 47 % 0.0 mm
15:39 14.1 °C 2.9 °C 1024.9 hPa West 6.9 km/h 6.9 km/h 47 % 0.0 mm
15:44 13.9 °C 2.8 °C 1024.9 hPa WSW 5.6 km/h 5.6 km/h 47 % 0.0 mm
15:49 13.8 °C 2.7 °C 1024.9 hPa West 3.7 km/h 3.7 km/h 47 % 0.0 mm
15:54 13.8 °C 2.7 °C 1024.9 hPa West 3.7 km/h 3.9 km/h 47 % 0.0 mm
15:59 13.7 °C 2.6 °C 1024.9 hPa SW 7.4 km/h 7.4 km/h 47 % 0.0 mm
16:04 13.7 °C 2.6 °C 1026.0 hPa WSW 9.3 km/h 9.3 km/h 47 % 0.0 mm
16:09 13.7 °C 2.6 °C 1026.0 hPa West 4.7 km/h   47 % 0.0 mm
16:14 13.6 °C 2.5 °C 1026.0 hPa North 3.7 km/h 3.7 km/h 47 % 0.0 mm
16:19 13.5 °C 2.4 °C 1026.0 hPa WNW 4.2 km/h 4.2 km/h 47 % 0.0 mm
16:24 13.5 °C 2.4 °C 1026.0 hPa NNW 3.7 km/h 3.7 km/h 47 % 0.0 mm
16:29 13.4 °C 2.3 °C 1026.0 hPa West 5.6 km/h 5.6 km/h 47 % 0.0 mm
16:34 13.3 °C 2.2 °C 1026.0 hPa WSW 3.7 km/h 3.7 km/h 47 % 0.0 mm
16:39 13.2 °C 2.1 °C 1026.0 hPa SW 4.2 km/h 4.2 km/h 47 % 0.0 mm
16:44 13.2 °C 2.1 °C 1026.0 hPa West 2.6 km/h   47 % 0.0 mm
16:49 13.1 °C 2.1 °C 1026.0 hPa WSW 1.9 km/h   47 % 0.0 mm
16:54 13.0 °C 1.9 °C 1026.0 hPa SW 4.2 km/h 4.2 km/h 47 % 0.0 mm
16:59 12.8 °C 1.8 °C 1026.0 hPa WSW 3.9 km/h 3.9 km/h 47 % 0.0 mm
17:04 12.6 °C 1.9 °C 1024.9 hPa WSW 3.9 km/h 3.9 km/h 48 % 0.0 mm
17:09 12.4 °C 1.7 °C 1024.9 hPa West 3.7 km/h 3.7 km/h 48 % 0.0 mm
17:14 12.3 °C 1.6 °C 1024.9 hPa WSW 3.5 km/h 3.5 km/h 48 % 0.0 mm
17:19 12.3 °C 1.6 °C 1026.0 hPa SW 1.9 km/h   48 % 0.0 mm
17:24 12.2 °C 1.5 °C 1026.0 hPa SW 2.6 km/h   48 % 0.0 mm
17:29 12.0 °C 1.3 °C 1026.0 hPa SW 3.7 km/h 3.7 km/h 48 % 0.0 mm
17:34 11.8 °C 1.1 °C 1024.9 hPa SW 3.9 km/h 3.9 km/h 48 % 0.0 mm
17:39 11.7 °C 1.3 °C 1024.9 hPa WSW 1.9 km/h 2.3 km/h 49 % 0.0 mm
17:44 11.7 °C 1.3 °C 1024.9 hPa SW 3.7 km/h 3.9 km/h 49 % 0.0 mm
17:49 11.7 °C 1.3 °C 1024.9 hPa WSW 3.7 km/h 3.7 km/h 49 % 0.0 mm
17:54 11.7 °C 1.3 °C 1024.9 hPa West 3.7 km/h 3.7 km/h 49 % 0.0 mm
17:59 11.7 °C 1.3 °C 1024.9 hPa WSW 3.7 km/h 3.7 km/h 49 % 0.0 mm
18:04 11.7 °C 1.1 °C 1024.9 hPa West 3.7 km/h 3.7 km/h 48 % 0.0 mm
18:09 11.7 °C 1.1 °C 1024.9 hPa West 1.9 km/h 1.9 km/h 48 % 0.0 mm
18:14 11.6 °C 0.9 °C 1024.9 hPa Calm     48 % 0.0 mm
18:19 11.5 °C 1.2 °C 1024.9 hPa Calm     49 % 0.0 mm
18:24 11.4 °C 0.8 °C 1024.9 hPa West 1.9 km/h 1.9 km/h 48 % 0.0 mm
18:29 11.3 °C 0.9 °C 1024.9 hPa Calm     49 % 0.0 mm
18:34 11.2 °C 0.9 °C 1026.0 hPa Calm     49 % 0.0 mm
18:39 11.0 °C 0.7 °C 1026.0 hPa Calm     49 % 0.0 mm
18:40 11.0 °C 0.7 °C 1026.0 hPa Calm     49 % 0.0 mm
18:45 10.9 °C 0.6 °C 1026.0 hPa Calm     49 % 0.0 mm
18:50 10.9 °C 0.6 °C 1026.0 hPa NE 2.6 km/h 2.6 km/h 49 % 0.0 mm
18:55 11.0 °C 0.9 °C 1026.0 hPa NE 1.6 km/h 3.2 km/h 50 % 0.0 mm
19:00 11.1 °C 0.8 °C 1026.0 hPa ENE 1.9 km/h   49 % 0.0 mm
19:05 11.1 °C 1.1 °C 1026.0 hPa Calm     50 % 0.0 mm
19:10 10.9 °C 0.9 °C 1026.0 hPa Calm     50 % 0.0 mm
19:15 10.7 °C 0.7 °C 1026.0 hPa West 3.7 km/h 3.7 km/h 50 % 0.0 mm
19:20 10.7 °C 0.7 °C 1026.0 hPa Calm     50 % 0.0 mm
19:25 10.6 °C 0.6 °C 1026.0 hPa West 1.9 km/h 1.9 km/h 50 % 0.0 mm
19:30 10.6 °C 0.6 °C 1026.0 hPa Calm     50 % 0.0 mm
19:35 10.6 °C 0.9 °C 1026.0 hPa NE 2.3 km/h   51 % 0.0 mm
19:40 10.4 °C 0.7 °C 1026.0 hPa ENE 3.7 km/h 3.7 km/h 51 % 0.0 mm
19:45 10.3 °C 0.6 °C 1026.0 hPa Calm     51 % 0.0 mm
19:50 10.4 °C 0.7 °C 1026.0 hPa Calm     51 % 0.0 mm
19:55 10.4 °C 0.7 °C 1026.0 hPa Calm     51 % 0.0 mm
20:00 10.4 °C 0.7 °C 1026.0 hPa Calm     51 % 0.0 mm
20:05 10.3 °C 0.6 °C 1026.0 hPa Calm     51 % 0.0 mm
20:10 10.0 °C 0.3 °C 1026.0 hPa ENE 1.4 km/h   51 % 0.0 mm
20:15 10.0 °C 0.3 °C 1026.0 hPa ENE 1.9 km/h 1.9 km/h 51 % 0.0 mm
20:20 10.0 °C 0.3 °C 1026.0 hPa Calm     51 % 0.0 mm
20:25 10.0 °C 0.6 °C 1026.0 hPa Calm     52 % 0.0 mm
20:30 9.9 °C 0.5 °C 1026.0 hPa ENE 1.9 km/h 1.9 km/h 52 % 0.0 mm
20:35 9.9 °C 0.5 °C 1026.0 hPa Calm     52 % 0.0 mm
20:40 9.9 °C 0.5 °C 1026.0 hPa WSW 5.6 km/h 5.6 km/h 52 % 0.0 mm
20:45 9.8 °C 0.4 °C 1026.0 hPa WSW 3.7 km/h 3.7 km/h 52 % 0.0 mm
20:50 9.9 °C 0.5 °C 1026.0 hPa WSW 3.9 km/h 3.9 km/h 52 % 0.0 mm
20:55 9.9 °C 0.5 °C 1026.0 hPa West 3.9 km/h 3.9 km/h 52 % 0.0 mm
21:00 9.8 °C 0.4 °C 1026.0 hPa West 3.7 km/h 3.7 km/h 52 % 0.0 mm
21:05 9.7 °C 0.3 °C 1026.0 hPa West 1.9 km/h 1.9 km/h 52 % 0.0 mm
21:10 9.8 °C 0.4 °C 1026.0 hPa West 1.9 km/h 1.9 km/h 52 % 0.0 mm
21:15 9.9 °C 0.5 °C 1026.0 hPa West 1.9 km/h 1.9 km/h 52 % 0.0 mm
21:20 9.9 °C 0.5 °C 1026.0 hPa Calm     52 % 0.0 mm
21:25 9.5 °C 0.1 °C 1026.0 hPa ENE 2.6 km/h 2.6 km/h 52 % 0.0 mm
21:30 9.3 °C 0.2 °C 1026.0 hPa ENE 1.9 km/h 1.9 km/h 53 % 0.0 mm
21:35 9.1 °C 0.0 °C 1026.0 hPa East 1.9 km/h 1.9 km/h 53 % 0.0 mm
21:40 9.0 °C 0.2 °C 1026.0 hPa Calm     54 % 0.0 mm
21:45 8.9 °C 0.1 °C 1026.0 hPa Calm     54 % 0.0 mm
21:50 8.7 °C 0.2 °C 1024.9 hPa East 1.9 km/h 1.9 km/h 55 % 0.0 mm
21:55 8.6 °C 0.1 °C 1024.9 hPa ENE 3.7 km/h 3.7 km/h 55 % 0.0 mm
22:00 8.5 °C 0.2 °C 1024.9 hPa Calm     56 % 0.0 mm
22:05 8.5 °C 0.2 °C 1026.0 hPa Calm     56 % 0.0 mm
22:10 8.5 °C 0.2 °C 1026.0 hPa Calm     56 % 0.0 mm
22:15 8.5 °C 0.2 °C 1026.0 hPa NE 2.3 km/h 2.3 km/h 56 % 0.0 mm
22:20 8.4 °C 0.1 °C 1026.0 hPa NE 2.3 km/h   56 % 0.0 mm
22:25 8.2 °C 0.2 °C 1026.0 hPa Calm     57 % 0.0 mm
22:30 8.2 °C 0.2 °C 1026.0 hPa Calm     57 % 0.0 mm
22:35 8.2 °C 0.2 °C 1026.0 hPa WNW 1.9 km/h 2.3 km/h 57 % 0.0 mm
22:40 8.3 °C 0.3 °C 1026.0 hPa WNW 1.9 km/h   57 % 0.0 mm
22:45 8.1 °C 0.1 °C 1026.0 hPa NE 5.6 km/h 5.6 km/h 57 % 0.0 mm
22:50 7.8 °C 0.1 °C 1026.0 hPa NE 1.9 km/h   58 % 0.0 mm
22:51 7.9 °C 0.1 °C 1026.0 hPa NE 1.9 km/h 1.9 km/h 58 % 0.0 mm
22:56 7.9 °C 0.1 °C 1026.0 hPa NE 2.3 km/h 2.3 km/h 58 % 0.0 mm
23:01 7.9 °C 0.1 °C 1026.0 hPa NE 1.9 km/h   58 % 0.0 mm
23:06 7.8 °C 0.1 °C 1024.9 hPa WNW 3.7 km/h 3.7 km/h 58 % 0.0 mm
23:11 7.7 °C 0.2 °C 1024.9 hPa WNW 1.9 km/h   59 % 0.0 mm
23:16 7.6 °C 0.1 °C 1024.9 hPa West 2.3 km/h 2.3 km/h 59 % 0.0 mm
23:21 7.5 °C 0.0 °C 1026.0 hPa WSW 3.7 km/h 3.7 km/h 59 % 0.0 mm
23:26 7.2 °C -0.3 °C 1026.0 hPa WSW 3.7 km/h 3.7 km/h 59 % 0.0 mm
23:31 7.2 °C -0.1 °C 1026.0 hPa WSW 3.7 km/h 3.7 km/h 60 % 0.0 mm
23:36 7.0 °C -0.2 °C 1026.0 hPa SW 1.9 km/h   60 % 0.0 mm
23:41 7.0 °C -0.2 °C 1026.0 hPa SW 2.3 km/h 2.3 km/h 60 % 0.0 mm
23:46 7.0 °C -0.2 °C 1026.0 hPa SW 3.7 km/h 3.7 km/h 60 % 0.0 mm
23:51 7.1 °C -0.2 °C 1026.0 hPa West 1.9 km/h 1.9 km/h 60 % 0.0 mm
23:56 7.2 °C -0.1 °C 1026.0 hPa West 1.9 km/h   60 % 0.0 mm
Meteo Sesrovires
Elogis d' Weather Underground - 3.5 mb

Guio original per  Jim McMurry - jmcmurry@mwt.net Adaptat per a la plantilla per  Wim van der Kuil - Leuven-Template.eu

Trobareu la nostra informacio del temps tambe a:

Weather Underground

AWEKAS